Airfield :
LOGIN :

Register | Disclaimer

   EN    FR    IT 

 










Legend :    VFR   Marginal VFR   IFR   Intensive IFR   Very Intensive IFR
Visi :
Ceiling :
>= 8 km
>= 3000ft
5 to 8 km
1000 to 3000 ft
1500m to 5 km
500 to 1000 ft
800 to 1500m
200 to 500 ft
< 800m
< 200 ft
Symbols :   Thunderstorms  Fog  Heavy snow  Heavy precipitations  Wind > 20 kt
SIGMETs :     Misc.  Thunderstorms  Icing  Turbulence  Mountain Waves  Volcanic Ashes






- Airport Elevation : 32 ft
- IATA code : NRK


ESSP - Norrköping

CURRENT METAR :
  • 252320Z AUTO 04012KT 9999 SCT017/// OVC049/// 00/M01 Q0985

EXPIRED METARs :
  • 252250Z AUTO 04014KT 9999 BKN018/// OVC051/// 00/M01 Q0985
  • 252220Z AUTO 05014KT 9999 SCT016/// BKN044/// BKN061/// 00/M01 Q0985
  • 252150Z AUTO 05010KT 9999 FEW028/// BKN055/// OVC062/// 00/M01 Q0985
  • 252120Z AUTO 06012KT 9999 -SN BKN028/// OVC039/// 00/M01 Q0985
  • 252050Z 06011KT 2800 -SN SCT007 BKN015 00/M00 Q0986

Expired Forecast.



MET'MAP, your aeronautical weather chart ! - Copyright ORBIFLY December 2007 - Disclaimer

ORBIFLY MET'MAP TEAM :

Programming & Development : Alexandra Zaïnal
Concept & original design : Baudouin d'Aumeries
Assistance for programming : Marc-Olivier Méhu
Technical & hardware support : Manuel Goepfert

Contact : metmap@orbifly.com




SOURCES & CREDITS :

   NOAA